createdAt,value
2018-07-08T00:01:30.555Z,102173.48
2018-07-08T00:03:59.082Z,102177.53
2018-07-08T00:06:27.265Z,102171.27
2018-07-08T00:08:55.410Z,102168.06
2018-07-08T00:11:23.563Z,102166.36
2018-07-08T00:13:51.894Z,102167.84
2018-07-08T00:16:20.027Z,102158.20
2018-07-08T00:18:48.156Z,102154.66
2018-07-08T00:21:16.257Z,102155.03
2018-07-08T00:23:44.407Z,102149.45
2018-07-08T00:26:12.507Z,102158.42
2018-07-08T00:28:41.238Z,102161.30
2018-07-08T00:31:09.372Z,102161.28
2018-07-08T00:33:37.547Z,102161.11
2018-07-08T00:36:05.706Z,102156.38
2018-07-08T00:38:33.879Z,102159.09
2018-07-08T00:41:02.157Z,102154.36
2018-07-08T00:43:31.155Z,102154.37
2018-07-08T00:45:59.227Z,102151.83
2018-07-08T00:48:27.320Z,102159.81
2018-07-08T00:50:55.433Z,102162.52
2018-07-08T00:53:23.571Z,102159.81
2018-07-08T00:55:51.650Z,102165.56
2018-07-08T00:58:20.555Z,102165.23
2018-07-08T01:00:48.675Z,102159.14
2018-07-08T01:03:17.278Z,102167.25
2018-07-08T01:05:45.543Z,102164.38
2018-07-08T01:08:13.833Z,102167.42
2018-07-08T01:10:42.036Z,102165.94
2018-07-08T01:13:10.211Z,102168.13
2018-07-08T01:15:38.797Z,102173.70
2018-07-08T01:18:06.957Z,102172.17
2018-07-08T01:20:35.441Z,102172.85
2018-07-08T01:23:03.509Z,102172.17
2018-07-08T01:25:48.860Z,102169.97
2018-07-08T01:28:17.952Z,102174.53
2018-07-08T01:30:46.102Z,102180.09
2018-07-08T01:33:15.211Z,102181.78
2018-07-08T01:35:43.681Z,102179.75
2018-07-08T01:38:12.054Z,102180.62
2018-07-08T01:40:40.345Z,102176.39
2018-07-08T01:43:08.614Z,102186.18
2018-07-08T01:45:36.769Z,102177.22
2018-07-08T01:48:04.953Z,102185.66
2018-07-08T01:50:33.956Z,102185.48
2018-07-08T01:53:02.350Z,102190.67
2018-07-08T01:55:32.063Z,102192.02
2018-07-08T01:58:00.267Z,102189.65
2018-07-08T02:00:28.474Z,102188.47
2018-07-08T02:02:56.727Z,102190.32
2018-07-08T02:05:24.851Z,102193.70
2018-07-08T02:07:53.468Z,102188.13
2018-07-08T02:10:21.808Z,102187.47
2018-07-08T02:12:49.974Z,102184.97
2018-07-08T02:15:18.171Z,102185.83
2018-07-08T02:17:46.351Z,102182.80
2018-07-08T02:20:14.960Z,102182.63
2018-07-08T02:22:43.087Z,102190.91
2018-07-08T02:25:11.553Z,102184.50
2018-07-08T02:27:39.916Z,102179.77
2018-07-08T02:30:08.515Z,102180.62
2018-07-08T02:32:37.461Z,102187.17
2018-07-08T02:35:05.606Z,102182.11
2018-07-08T02:37:33.776Z,102180.09
2018-07-08T02:40:02.354Z,102183.30
2018-07-08T02:42:30.735Z,102188.20
2018-07-08T02:44:59.025Z,102186.52
2018-07-08T02:47:27.242Z,102189.39
2018-07-08T02:49:55.721Z,102186.86
2018-07-08T02:52:23.898Z,102188.38
2018-07-08T02:54:52.054Z,102185.17
2018-07-08T02:57:20.670Z,102188.05
2018-07-08T02:59:48.818Z,102186.87
2018-07-08T03:02:17.197Z,102187.21
2018-07-08T03:04:45.329Z,102186.53
2018-07-08T03:07:13.401Z,102186.37
2018-07-08T03:09:41.581Z,102176.23
2018-07-08T03:12:09.754Z,102185.70
2018-07-08T03:14:38.667Z,102190.94
2018-07-08T03:17:06.791Z,102192.28
2018-07-08T03:19:35.025Z,102186.88
2018-07-08T03:22:04.440Z,102189.72
2018-07-08T03:24:32.582Z,102192.97
2018-07-08T03:27:00.979Z,102196.31
2018-07-08T03:29:29.182Z,102192.59
2018-07-08T03:31:57.348Z,102197.83
2018-07-08T03:34:25.754Z,102200.03
2018-07-08T03:36:53.865Z,102196.82
2018-07-08T03:39:22.705Z,102194.28
2018-07-08T03:41:50.936Z,102196.31
2018-07-08T03:44:19.108Z,102194.97
2018-07-08T03:46:47.213Z,102190.91
2018-07-08T03:49:15.553Z,102193.44
2018-07-08T03:51:44.070Z,102189.73
2018-07-08T03:54:29.307Z,102191.92
2018-07-08T03:56:58.027Z,102200.20
2018-07-08T03:59:26.233Z,102196.48
2018-07-08T04:01:55.619Z,102194.97
2018-07-08T04:04:24.013Z,102199.19
2018-07-08T04:06:52.114Z,102203.58
2018-07-08T04:09:20.239Z,102205.95
2018-07-08T04:11:49.022Z,102205.28
2018-07-08T04:14:17.372Z,102209.50
2018-07-08T04:16:46.292Z,102209.67
2018-07-08T04:19:15.166Z,102205.45
2018-07-08T04:21:44.035Z,102213.22
2018-07-08T04:24:12.501Z,102214.91
2018-07-08T04:26:40.710Z,102219.61
2018-07-08T04:29:08.911Z,102224.52
2018-07-08T04:31:37.077Z,102225.53
2018-07-08T04:34:05.444Z,102227.89
2018-07-08T04:36:33.980Z,102224.69
2018-07-08T04:39:02.447Z,102218.77
2018-07-08T04:41:30.577Z,102219.95
2018-07-08T04:43:58.686Z,102226.87
2018-07-08T04:46:27.019Z,102225.70
2018-07-08T04:48:55.252Z,102227.55
2018-07-08T04:51:23.915Z,102232.80
2018-07-08T04:53:52.065Z,102232.48
2018-07-08T04:56:20.239Z,102230.80
2018-07-08T04:58:48.501Z,102236.20
2018-07-08T05:01:16.681Z,102241.78
2018-07-08T05:03:45.037Z,102250.58
2018-07-08T05:06:13.575Z,102246.01
2018-07-08T05:08:42.132Z,102250.55
2018-07-08T05:11:10.462Z,102252.40
2018-07-08T05:13:38.561Z,102250.02
2018-07-08T05:16:06.711Z,102256.45
2018-07-08T05:18:34.956Z,102254.92
2018-07-08T05:21:03.180Z,102252.73
2018-07-08T05:23:31.368Z,102251.37
2018-07-08T05:25:59.832Z,102254.07
2018-07-08T05:28:28.574Z,102258.45
2018-07-08T05:30:57.101Z,102255.08
2018-07-08T05:33:25.196Z,102259.43
2018-07-08T05:35:54.060Z,102264.48
2018-07-08T05:38:22.211Z,102264.14
2018-07-08T05:40:50.662Z,102262.42
2018-07-08T05:43:19.217Z,102262.38
2018-07-08T05:45:47.578Z,102263.19
2018-07-08T05:48:15.731Z,102265.36
2018-07-08T05:50:43.864Z,102259.94
2018-07-08T05:53:12.123Z,102255.47
2018-07-08T05:55:40.241Z,102259.50
2018-07-08T05:58:08.543Z,102267.59
2018-07-08T06:00:36.849Z,102259.75
2018-07-08T06:03:05.422Z,102262.20
2018-07-08T06:05:33.673Z,102267.36
2018-07-08T06:08:02.004Z,102264.78
2018-07-08T06:10:30.250Z,102268.17
2018-07-08T06:12:59.113Z,102266.72
2018-07-08T06:15:27.476Z,102270.34
2018-07-08T06:17:55.891Z,102273.17
2018-07-08T06:20:24.069Z,102271.81
2018-07-08T06:22:52.456Z,102272.62
2018-07-08T06:25:21.343Z,102271.78
2018-07-08T06:27:49.565Z,102278.38
2018-07-08T06:30:17.894Z,102279.70
2018-07-08T06:32:46.458Z,102273.90
2018-07-08T06:35:15.090Z,102277.56
2018-07-08T06:37:43.333Z,102271.58
2018-07-08T06:40:11.554Z,102278.11
2018-07-08T06:42:39.989Z,102283.08
2018-07-08T06:45:08.209Z,102283.36
2018-07-08T06:47:36.627Z,102287.56
2018-07-08T06:50:05.378Z,102286.59
2018-07-08T06:52:33.653Z,102289.22
2018-07-08T06:55:01.718Z,102285.17
2018-07-08T06:57:29.844Z,102293.04
2018-07-08T06:59:58.081Z,102291.02
2018-07-08T07:02:26.259Z,102291.19
2018-07-08T07:04:54.476Z,102293.19
2018-07-08T07:07:22.748Z,102291.25
2018-07-08T07:09:50.866Z,102294.92
2018-07-08T07:12:19.318Z,102290.32
2018-07-08T07:14:47.538Z,102287.28
2018-07-08T07:17:16.193Z,102284.98
2018-07-08T07:19:44.343Z,102281.48
2018-07-08T07:22:12.525Z,102275.73
2018-07-08T07:24:40.920Z,102279.02
2018-07-08T07:27:09.082Z,102280.41
2018-07-08T07:29:37.469Z,102282.63
2018-07-08T07:32:06.684Z,102282.64
2018-07-08T07:34:34.950Z,102274.64
2018-07-08T07:37:03.410Z,102281.39
2018-07-08T07:39:31.715Z,102281.88
2018-07-08T07:41:59.941Z,102282.22
2018-07-08T07:44:28.462Z,102288.55
2018-07-08T07:46:56.668Z,102287.36
2018-07-08T07:49:24.903Z,102290.56
2018-07-08T07:51:53.065Z,102285.53
2018-07-08T07:54:21.481Z,102283.01
2018-07-08T07:56:49.955Z,102283.86
2018-07-08T07:59:18.604Z,102291.55
2018-07-08T08:01:46.814Z,102289.98
2018-07-08T08:04:15.289Z,102292.30
2018-07-08T08:06:44.187Z,102300.49
2018-07-08T08:09:12.450Z,102319.08
2018-07-08T08:11:40.914Z,102317.00
2018-07-08T08:14:09.098Z,102302.95
2018-07-08T08:16:44.189Z,102300.51
2018-07-08T08:19:12.367Z,102303.23
2018-07-08T08:21:40.677Z,102298.44
2018-07-08T08:24:08.931Z,102307.69
2018-07-08T08:26:37.111Z,102298.59
2018-07-08T08:29:05.330Z,102293.98
2018-07-08T08:31:33.894Z,102295.70
2018-07-08T08:35:06.331Z,102298.72
2018-07-08T08:37:36.831Z,102302.84
2018-07-08T08:40:05.673Z,102301.83
2018-07-08T08:42:33.866Z,102302.19
2018-07-08T08:45:02.385Z,102307.89
2018-07-08T08:47:31.193Z,102303.05
2018-07-08T08:49:59.388Z,102303.90
2018-07-08T08:52:28.540Z,102305.30
2018-07-08T08:54:56.861Z,102302.53
2018-07-08T08:57:25.214Z,102306.67
2018-07-08T08:59:53.719Z,102299.51
2018-07-08T09:02:22.105Z,102296.27
2018-07-08T09:04:50.315Z,102299.53
2018-07-08T09:07:19.309Z,102298.61
2018-07-08T09:09:48.235Z,102298.81
2018-07-08T09:12:16.592Z,102299.49
2018-07-08T09:14:44.863Z,102296.75
2018-07-08T09:17:13.113Z,102300.69
2018-07-08T09:19:42.028Z,102294.05
2018-07-08T09:22:10.640Z,102289.88
2018-07-08T09:24:38.884Z,102291.84
2018-07-08T09:27:07.137Z,102289.39
2018-07-08T09:29:35.475Z,102294.11
2018-07-08T09:32:03.723Z,102295.13
2018-07-08T09:34:32.018Z,102289.26
2018-07-08T09:37:00.332Z,102294.37
2018-07-08T09:39:28.660Z,102287.89
2018-07-08T09:41:57.093Z,102288.05
2018-07-08T09:44:25.580Z,102286.41
2018-07-08T09:46:53.899Z,102288.22
2018-07-08T09:49:22.265Z,102291.89
2018-07-08T09:51:50.598Z,102294.13
2018-07-08T09:54:18.886Z,102291.25
2018-07-08T09:56:47.118Z,102287.41
2018-07-08T09:59:15.814Z,102290.89
2018-07-08T10:01:45.719Z,102292.27
2018-07-08T10:04:18.434Z,102290.45
2018-07-08T10:06:47.532Z,102293.79
2018-07-08T10:09:19.283Z,102286.16
2018-07-08T10:11:47.570Z,102283.81
2018-07-08T10:14:17.959Z,102291.66
2018-07-08T10:16:46.759Z,102279.50
2018-07-08T10:19:16.229Z,102292.38
2018-07-08T10:21:44.655Z,102285.72
2018-07-08T10:24:12.821Z,102291.44
2018-07-08T10:26:41.056Z,102286.98
2018-07-08T10:29:11.765Z,102292.19
2018-07-08T10:31:50.108Z,102285.68
2018-07-08T10:34:18.643Z,102285.54
2018-07-08T10:36:46.851Z,102281.20
2018-07-08T10:39:15.670Z,102288.83
2018-07-08T10:41:44.310Z,102278.81
2018-07-08T10:44:12.630Z,102283.31
2018-07-08T10:46:41.325Z,102287.82
2018-07-08T10:49:09.655Z,102283.39
2018-07-08T10:51:37.850Z,102279.73
2018-07-08T10:54:06.563Z,102289.16
2018-07-08T10:56:34.717Z,102285.02
2018-07-08T10:59:03.026Z,102288.48
2018-07-08T11:01:31.182Z,102286.96
2018-07-08T11:03:59.349Z,102271.77
2018-07-08T11:06:27.577Z,102273.61
2018-07-08T11:08:55.956Z,102277.52
2018-07-08T11:11:24.535Z,102289.73
2018-07-08T11:13:52.977Z,102283.61
2018-07-08T11:16:21.148Z,102277.76
2018-07-08T11:18:49.319Z,102279.69
2018-07-08T11:21:17.540Z,102280.73
2018-07-08T11:23:46.516Z,102276.63
2018-07-08T11:26:14.922Z,102280.02
2018-07-08T11:28:43.276Z,102280.83
2018-07-08T11:31:11.604Z,102276.12
2018-07-08T11:33:39.833Z,102281.11
2018-07-08T11:36:08.046Z,102284.73
2018-07-08T11:38:36.260Z,102279.17
2018-07-08T11:41:04.437Z,102279.73
2018-07-08T11:43:33.032Z,102283.00
2018-07-08T11:46:01.718Z,102275.81
2018-07-08T11:48:30.734Z,102272.74
2018-07-08T11:50:59.328Z,102278.42
2018-07-08T11:53:27.551Z,102263.68
2018-07-08T11:55:55.782Z,102263.86
2018-07-08T11:58:24.020Z,102264.48
2018-07-08T12:00:52.229Z,102262.02
2018-07-08T12:03:20.507Z,102256.77
2018-07-08T12:05:48.790Z,102259.29
2018-07-08T12:08:16.983Z,102260.64
2018-07-08T12:10:45.221Z,102266.20
2018-07-08T12:13:13.471Z,102264.61
2018-07-08T12:15:41.943Z,102269.30
2018-07-08T12:18:10.297Z,102268.23
2018-07-08T12:20:38.939Z,102261.13
2018-07-08T12:23:07.160Z,102265.65
2018-07-08T12:25:35.401Z,102260.09
2018-07-08T12:28:03.676Z,102256.58
2018-07-08T12:30:31.977Z,102258.83
2018-07-08T12:33:01.065Z,102254.39
2018-07-08T12:35:29.278Z,102261.18
2018-07-08T12:37:57.452Z,102257.11
2018-07-08T12:40:25.714Z,102263.22
2018-07-08T12:42:53.941Z,102263.94
2018-07-08T12:45:22.205Z,102269.60
2018-07-08T12:47:50.440Z,102277.23
2018-07-08T12:50:18.649Z,102270.30
2018-07-08T12:52:47.018Z,102275.73
2018-07-08T12:55:15.248Z,102274.73
2018-07-08T12:57:43.621Z,102266.45
2018-07-08T13:00:11.876Z,102275.89
2018-07-08T13:02:40.195Z,102276.39
2018-07-08T13:05:08.633Z,102268.61
2018-07-08T13:07:36.804Z,102267.72
2018-07-08T13:10:05.097Z,102270.19
2018-07-08T13:12:33.328Z,102267.63
2018-07-08T13:15:01.524Z,102259.66
2018-07-08T13:17:29.635Z,102265.16
2018-07-08T13:19:57.871Z,102266.03
2018-07-08T13:22:26.091Z,102266.13
2018-07-08T13:24:54.333Z,102269.42
2018-07-08T13:27:22.531Z,102270.67
2018-07-08T13:29:50.790Z,102286.19
2018-07-08T13:32:19.632Z,102283.59
2018-07-08T13:34:47.894Z,102280.75
2018-07-08T13:37:16.190Z,102277.64
2018-07-08T13:39:44.430Z,102273.81
2018-07-08T13:42:12.631Z,102275.80
2018-07-08T13:44:40.920Z,102278.14
2018-07-08T13:47:09.116Z,102273.91
2018-07-08T13:49:37.220Z,102265.88
2018-07-08T13:52:05.405Z,102268.09
2018-07-08T13:54:34.329Z,102279.20
2018-07-08T13:57:02.558Z,102280.28
2018-07-08T13:59:30.750Z,102279.20
2018-07-08T14:01:58.913Z,102286.82
2018-07-08T14:04:27.118Z,102282.85
2018-07-08T14:06:55.940Z,102272.81
2018-07-08T14:09:24.126Z,102273.91
2018-07-08T14:11:52.284Z,102279.05
2018-07-08T14:14:20.669Z,102281.67
2018-07-08T14:16:49.113Z,102268.53
2018-07-08T14:19:17.334Z,102278.71
2018-07-08T14:21:45.596Z,102271.52
2018-07-08T14:24:14.115Z,102282.37
2018-07-08T14:26:42.459Z,102273.98
2018-07-08T14:29:10.682Z,102279.45
2018-07-08T14:31:38.924Z,102269.56
2018-07-08T14:34:07.460Z,102274.36
2018-07-08T14:36:35.631Z,102271.33
2018-07-08T14:39:05.091Z,102273.24
2018-07-08T14:41:33.426Z,102273.05
2018-07-08T14:44:01.793Z,102266.27
2018-07-08T14:46:30.149Z,102268.41
2018-07-08T14:48:58.375Z,102266.69
2018-07-08T14:51:26.637Z,102260.36
2018-07-08T14:53:55.474Z,102265.83
2018-07-08T14:56:24.144Z,102257.50
2018-07-08T14:58:52.369Z,102265.36
2018-07-08T15:01:21.428Z,102258.77
2018-07-08T15:03:49.936Z,102261.84
2018-07-08T15:06:18.913Z,102259.94
2018-07-08T15:08:47.162Z,102262.07
2018-07-08T15:11:15.526Z,102263.05
2018-07-08T15:13:43.806Z,102260.98
2018-07-08T15:16:12.271Z,102261.90
2018-07-08T15:18:40.487Z,102262.28
2018-07-08T15:21:08.845Z,102263.50
2018-07-08T15:23:37.188Z,102265.62
2018-07-08T15:26:05.408Z,102261.56
2018-07-08T15:28:33.714Z,102258.74
2018-07-08T15:31:02.023Z,102258.74
2018-07-08T15:33:30.342Z,102268.65
2018-07-08T15:35:58.503Z,102268.11
2018-07-08T15:38:26.811Z,102262.62
2018-07-08T15:40:54.985Z,102257.61
2018-07-08T15:43:24.254Z,102262.73
2018-07-08T15:45:52.530Z,102265.45
2018-07-08T15:48:20.707Z,102257.67
2018-07-08T15:50:48.883Z,102259.58
2018-07-08T15:53:17.026Z,102260.26
2018-07-08T15:55:45.260Z,102259.73
2018-07-08T15:58:13.556Z,102256.08
2018-07-08T16:00:41.917Z,102257.61
2018-07-08T16:03:10.150Z,102251.21
2018-07-08T16:05:38.509Z,102250.61
2018-07-08T16:08:06.720Z,102244.95
2018-07-08T16:10:34.849Z,102248.59
2018-07-08T16:13:03.043Z,102241.55
2018-07-08T16:15:31.220Z,102254.20
2018-07-08T16:17:59.486Z,102248.14
2018-07-08T16:20:27.915Z,102246.11
2018-07-08T16:22:56.127Z,102250.66
2018-07-08T16:25:24.443Z,102245.08
2018-07-08T16:27:52.688Z,102250.50
2018-07-08T16:30:20.896Z,102253.98
2018-07-08T16:32:49.154Z,102247.39
2018-07-08T16:35:17.477Z,102249.55
2018-07-08T16:37:45.856Z,102252.97
2018-07-08T16:40:14.370Z,102247.19
2018-07-08T16:42:43.773Z,102254.04
2018-07-08T16:45:12.045Z,102249.12
2018-07-08T16:47:40.941Z,102245.00
2018-07-08T16:50:09.249Z,102252.09
2018-07-08T16:52:37.685Z,102243.50
2018-07-08T16:55:05.963Z,102241.82
2018-07-08T16:57:34.237Z,102239.92
2018-07-08T17:00:03.031Z,102251.60
2018-07-08T17:02:31.553Z,102242.50
2018-07-08T17:04:59.987Z,102242.71
2018-07-08T17:07:28.403Z,102239.66
2018-07-08T17:09:57.033Z,102228.41
2018-07-08T17:12:25.383Z,102236.28
2018-07-08T17:14:53.862Z,102233.36
2018-07-08T17:17:22.146Z,102239.00
2018-07-08T17:19:50.362Z,102238.55
2018-07-08T17:22:18.652Z,102231.00
2018-07-08T17:24:46.931Z,102227.41
2018-07-08T17:27:15.226Z,102230.40
2018-07-08T17:29:43.410Z,102239.52
2018-07-08T17:32:12.228Z,102235.83
2018-07-08T17:34:40.483Z,102234.88
2018-07-08T17:37:08.641Z,102229.08
2018-07-08T17:39:36.842Z,102231.25
2018-07-08T17:42:04.994Z,102230.69
2018-07-08T17:44:33.191Z,102220.70
2018-07-08T17:47:01.466Z,102223.92
2018-07-08T17:49:29.591Z,102226.52
2018-07-08T17:51:57.902Z,102216.55
2018-07-08T17:54:26.046Z,102226.48
2018-07-08T17:56:55.175Z,102223.00
2018-07-08T17:59:23.445Z,102227.56
2018-07-08T18:01:51.775Z,102225.95
2018-07-08T18:04:20.008Z,102222.27
2018-07-08T18:06:48.290Z,102232.39
2018-07-08T18:09:16.600Z,102221.65
2018-07-08T18:11:44.807Z,102223.80
2018-07-08T18:14:13.037Z,102228.52
2018-07-08T18:16:41.508Z,102233.83
2018-07-08T18:19:10.540Z,102233.26
2018-07-08T18:21:38.697Z,102240.20
2018-07-08T18:24:07.065Z,102234.38
2018-07-08T18:26:35.573Z,102233.83
2018-07-08T18:29:03.892Z,102234.02
2018-07-08T18:31:32.321Z,102228.84
2018-07-08T18:34:00.494Z,102228.58
2018-07-08T18:36:28.695Z,102226.60
2018-07-08T18:38:56.866Z,102231.01
2018-07-08T18:41:25.099Z,102222.06
2018-07-08T18:43:53.499Z,102220.25
2018-07-08T18:46:21.786Z,102229.13
2018-07-08T18:48:49.967Z,102226.50
2018-07-08T18:51:18.329Z,102229.98
2018-07-08T18:53:46.546Z,102230.89
2018-07-08T18:56:14.987Z,102228.42
2018-07-08T18:58:43.272Z,102223.75
2018-07-08T19:01:11.466Z,102224.55
2018-07-08T19:03:39.649Z,102230.56
2018-07-08T19:06:08.086Z,102227.38
2018-07-08T19:08:36.345Z,102224.06
2018-07-08T19:11:04.722Z,102224.83
2018-07-08T19:13:33.058Z,102227.27
2018-07-08T19:16:01.439Z,102223.66
2018-07-08T19:18:29.775Z,102222.02
2018-07-08T19:20:58.088Z,102215.76
2018-07-08T19:23:26.525Z,102220.07
2018-07-08T19:25:54.795Z,102218.11
2018-07-08T19:28:23.032Z,102212.06
2018-07-08T19:30:51.331Z,102211.30
2018-07-08T19:33:19.791Z,102209.48
2018-07-08T19:35:48.421Z,102221.41
2018-07-08T19:38:17.559Z,102217.90
2018-07-08T19:40:46.033Z,102218.45
2018-07-08T19:43:14.267Z,102216.30
2018-07-08T19:45:42.531Z,102216.23
2018-07-08T19:48:10.735Z,102221.19
2018-07-08T19:50:39.038Z,102224.13
2018-07-08T19:53:08.267Z,102222.66
2018-07-08T19:55:36.387Z,102227.28
2018-07-08T19:58:04.770Z,102219.55
2018-07-08T20:00:33.002Z,102222.33
2018-07-08T20:03:01.591Z,102225.05
2018-07-08T20:05:30.350Z,102222.87
2018-07-08T20:07:59.171Z,102227.16
2018-07-08T20:10:27.489Z,102232.29
2018-07-08T20:12:55.811Z,102228.25
2018-07-08T20:15:23.962Z,102224.94
2018-07-08T20:17:52.183Z,102226.69
2018-07-08T20:20:20.455Z,102231.62
2018-07-08T20:22:48.850Z,102234.55
2018-07-08T20:25:17.626Z,102227.97
2018-07-08T20:27:46.653Z,102231.05
2018-07-08T20:30:15.216Z,102229.02
2018-07-08T20:32:43.515Z,102229.59
2018-07-08T20:35:11.882Z,102230.95
2018-07-08T20:37:40.339Z,102226.75
2018-07-08T20:40:08.603Z,102227.11
2018-07-08T20:42:37.218Z,102229.84
2018-07-08T20:45:05.456Z,102236.81
2018-07-08T20:47:33.676Z,102236.84
2018-07-08T20:50:02.033Z,102234.36
2018-07-08T20:52:30.540Z,102241.99
2018-07-08T20:55:00.058Z,102241.13
2018-07-08T20:57:28.452Z,102244.02
2018-07-08T20:59:56.626Z,102241.33
2018-07-08T21:02:24.763Z,102235.92
2018-07-08T21:04:53.176Z,102242.38
2018-07-08T21:07:21.440Z,102250.34
2018-07-08T21:09:50.081Z,102247.98
2018-07-08T21:12:18.309Z,102244.81
2018-07-08T21:14:46.553Z,102242.95
2018-07-08T21:17:14.779Z,102250.41
2018-07-08T21:19:42.990Z,102241.28
2018-07-08T21:22:11.228Z,102243.31
2018-07-08T21:24:39.805Z,102246.38
2018-07-08T21:27:07.939Z,102246.55
2018-07-08T21:29:36.360Z,102244.86
2018-07-08T21:32:04.562Z,102239.44
2018-07-08T21:34:33.061Z,102236.23
2018-07-08T21:37:01.224Z,102239.29
2018-07-08T21:39:29.694Z,102234.73
2018-07-08T21:41:58.043Z,102230.71
2018-07-08T21:44:26.323Z,102227.33
2018-07-08T21:46:54.589Z,102227.67
2018-07-08T21:49:22.834Z,102225.48
2018-07-08T21:51:51.078Z,102227.17
2018-07-08T21:54:19.375Z,102228.53
2018-07-08T21:56:47.589Z,102221.78
2018-07-08T21:59:16.180Z,102229.22
2018-07-08T22:02:06.414Z,102228.88
2018-07-08T22:04:34.660Z,102227.70
2018-07-08T22:07:08.667Z,102223.66
2018-07-08T22:09:36.881Z,102226.39
2018-07-08T22:12:05.078Z,102227.75
2018-07-08T22:14:33.269Z,102233.84
2018-07-08T22:17:01.465Z,102234.66
2018-07-08T22:19:29.943Z,102229.92
2018-07-08T22:21:58.273Z,102236.69
2018-07-08T22:24:26.482Z,102229.25
2018-07-08T22:26:54.545Z,102221.64
2018-07-08T22:29:23.202Z,102230.09
2018-07-08T22:31:51.410Z,102234.31
2018-07-08T22:34:19.623Z,102232.63
2018-07-08T22:36:47.788Z,102232.45
2018-07-08T22:39:16.150Z,102238.88
2018-07-08T22:41:44.643Z,102233.00
2018-07-08T22:44:12.754Z,102235.87
2018-07-08T22:46:40.934Z,102235.87
2018-07-08T22:49:09.055Z,102234.01
2018-07-08T22:51:37.251Z,102236.71
2018-07-08T22:54:05.723Z,102237.05
2018-07-08T22:56:34.302Z,102237.37
2018-07-08T22:59:02.466Z,102238.05
2018-07-08T23:02:45.009Z,102234.67
2018-07-08T23:05:14.114Z,102239.06
2018-07-08T23:07:42.787Z,102240.08
2018-07-08T23:10:11.914Z,102233.33
2018-07-08T23:12:40.946Z,102231.80
2018-07-08T23:15:09.211Z,102233.32
2018-07-08T23:17:39.680Z,102229.09
2018-07-08T23:20:07.885Z,102229.77
2018-07-08T23:22:53.062Z,102228.91
2018-07-08T23:25:21.251Z,102226.92
2018-07-08T23:27:49.409Z,102222.86
2018-07-08T23:30:17.570Z,102225.89
2018-07-08T23:32:45.753Z,102215.59
2018-07-08T23:35:13.882Z,102223.87
2018-07-08T23:37:42.197Z,102226.06
2018-07-08T23:40:10.350Z,102224.36
2018-07-08T23:42:38.544Z,102218.45
2018-07-08T23:45:06.749Z,102211.02
2018-07-08T23:47:35.038Z,102217.11
2018-07-08T23:50:03.622Z,102218.46
2018-07-08T23:52:31.844Z,102215.42
2018-07-08T23:55:00.133Z,102214.23
2018-07-08T23:57:28.427Z,102213.39
2018-07-08T23:59:56.679Z,102205.79
